Time;durP1;ratioP1;P1;durP2;ratioP2;P2;SDS_P1;SDS_P2;PMS_P1;PMS_P2;Temp;Humidity;BMP_temperature;BMP_pressure;BME280_temperature;BME280_humidity;BME280_pressure;Samples;Min_cycle;Max_cycle;Signal;HPM_P1;HPM_P2
2021/09/09 00:01:19;;;;;;;25.45;16.38;;;16.00;99.90;;;;;;5017329;28;20045;-58
2021/09/09 00:03:45;;;;;;;28.10;16.98;;;16.00;99.90;;;;;;5014253;28;20037;-58
2021/09/09 00:06:10;;;;;;;26.17;15.88;;;16.00;99.90;;;;;;5010690;28;20057;-59
2021/09/09 00:08:36;;;;;;;27.40;16.17;;;16.00;99.90;;;;;;5019058;28;20036;-57
2021/09/09 00:11:01;;;;;;;27.35;16.95;;;15.90;99.90;;;;;;5016472;28;20037;-56
2021/09/09 00:13:27;;;;;;;27.35;16.27;;;15.90;99.90;;;;;;5029550;28;20026;-60
2021/09/09 00:15:53;;;;;;;24.83;16.23;;;15.90;99.90;;;;;;5016443;28;20037;-58
2021/09/09 00:18:18;;;;;;;26.95;16.17;;;15.90;99.90;;;;;;5015201;28;20022;-59
2021/09/09 00:20:44;;;;;;;27.23;16.15;;;15.90;99.90;;;;;;5017855;28;20056;-55
2021/09/09 00:23:09;;;;;;;23.60;17.00;;;15.80;99.90;;;;;;5016866;28;20481;-58
2021/09/09 00:25:36;;;;;;;32.33;17.60;;;15.80;99.90;;;;;;5014019;28;20489;-58
2021/09/09 00:28:01;;;;;;;32.83;17.17;;;15.80;99.90;;;;;;5014544;28;20034;-57
2021/09/09 00:30:27;;;;;;;26.65;16.13;;;15.80;99.90;;;;;;5017588;28;20032;-56
2021/09/09 00:32:52;;;;;;;22.85;16.15;;;15.80;99.90;;;;;;5014683;28;20054;-56
2021/09/09 00:35:18;;;;;;;26.13;16.15;;;15.80;99.90;;;;;;5013433;28;20057;-59
2021/09/09 00:37:43;;;;;;;25.10;15.77;;;15.80;99.90;;;;;;5014354;28;20022;-57
2021/09/09 00:40:10;;;;;;;31.83;17.25;;;15.80;99.90;;;;;;5019735;28;20911;-55
2021/09/09 00:42:36;;;;;;;30.67;17.63;;;15.80;99.90;;;;;;5012707;28;20450;-56
2021/09/09 00:45:01;;;;;;;26.58;16.33;;;15.70;99.90;;;;;;5015448;28;20105;-55
2021/09/09 00:47:27;;;;;;;28.05;16.67;;;15.70;99.90;;;;;;5013580;28;20112;-56
2021/09/09 00:49:52;;;;;;;27.52;17.08;;;15.70;99.90;;;;;;5011510;28;20040;-55
2021/09/09 00:52:18;;;;;;;25.23;17.17;;;15.70;99.90;;;;;;5018901;28;20026;-55
2021/09/09 00:54:46;;;;;;;27.30;16.63;;;15.70;99.90;;;;;;5013035;28;20026;-57
2021/09/09 00:57:15;;;;;;;31.48;17.02;;;15.70;99.90;;;;;;5013948;28;20029;-55
2021/09/09 00:59:40;;;;;;;28.65;17.52;;;15.70;99.90;;;;;;5039212;23;20559;-62
2021/09/09 01:02:06;;;;;;;28.05;16.85;;;15.60;99.90;;;;;;5031283;28;20085;-63
2021/09/09 01:04:32;;;;;;;29.92;16.30;;;15.60;99.90;;;;;;5035514;28;20097;-63
2021/09/09 01:07:00;;;;;;;27.15;17.77;;;15.60;99.90;;;;;;5034641;28;20059;-61
2021/09/09 01:09:25;;;;;;;24.92;16.83;;;15.50;99.90;;;;;;5034736;28;20044;-63
2021/09/09 01:11:51;;;;;;;25.48;16.58;;;15.50;99.90;;;;;;5029684;28;20037;-62
2021/09/09 01:14:18;;;;;;;24.83;16.63;;;15.50;99.90;;;;;;5028752;28;20125;-63
2021/09/09 01:16:45;;;;;;;26.98;16.35;;;15.50;99.90;;;;;;5023803;28;20029;-62
2021/09/09 01:19:14;;;;;;;28.73;17.58;;;15.50;99.90;;;;;;5024526;28;20437;-62
2021/09/09 01:21:40;;;;;;;27.30;18.10;;;15.40;99.90;;;;;;5026621;28;20045;-60
2021/09/09 01:24:12;;;;;;;27.42;16.95;;;15.40;99.90;;;;;;5022597;28;20092;-61
2021/09/09 01:27:03;;;;;;;31.27;17.77;;;15.40;99.90;;;;;;5018496;28;20029;-62
2021/09/09 01:29:31;;;;;;;27.42;17.27;;;15.40;99.90;;;;;;5019871;28;20030;-64
2021/09/09 01:31:57;;;;;;;31.55;17.52;;;15.30;99.90;;;;;;5013039;28;20117;-62
2021/09/09 01:34:24;;;;;;;24.80;16.88;;;15.30;99.90;;;;;;5002466;28;20486;-63
2021/09/09 01:36:50;;;;;;;29.35;17.42;;;15.30;99.90;;;;;;5020469;28;20021;-63
2021/09/09 01:39:16;;;;;;;33.42;17.17;;;15.30;99.90;;;;;;5024165;28;20033;-63
2021/09/09 01:41:41;;;;;;;32.58;17.63;;;15.20;99.90;;;;;;5016654;28;20021;-63
2021/09/09 01:44:07;;;;;;;22.85;16.73;;;15.20;99.90;;;;;;5025082;28;20031;-62
2021/09/09 01:46:33;;;;;;;28.75;17.52;;;15.20;99.90;;;;;;5021839;28;20113;-63
2021/09/09 01:49:00;;;;;;;28.25;18.05;;;15.30;99.90;;;;;;5023844;28;20029;-62
2021/09/09 01:51:26;;;;;;;25.52;16.75;;;15.20;99.90;;;;;;5020819;28;20026;-62
2021/09/09 01:53:53;;;;;;;24.35;15.70;;;15.20;99.90;;;;;;5020843;28;20025;-62
2021/09/09 01:56:18;;;;;;;24.52;16.50;;;15.20;99.90;;;;;;5022507;28;20056;-63
2021/09/09 01:58:44;;;;;;;28.10;17.25;;;15.20;99.90;;;;;;5021780;28;20053;-63
2021/09/09 02:01:09;;;;;;;26.50;17.35;;;15.10;99.90;;;;;;5021067;28;20043;-62
2021/09/09 02:03:35;;;;;;;30.02;17.48;;;15.10;99.90;;;;;;5020713;28;20488;-64
2021/09/09 02:06:01;;;;;;;29.77;17.25;;;15.10;99.90;;;;;;5002207;28;20104;-61
2021/09/09 02:08:27;;;;;;;27.98;17.17;;;15.10;99.90;;;;;;5017723;28;20034;-63
2021/09/09 02:10:52;;;;;;;30.25;19.58;;;15.10;99.90;;;;;;5020875;28;20033;-62
2021/09/09 02:13:18;;;;;;;30.58;17.08;;;15.00;99.90;;;;;;5019746;28;20033;-62
2021/09/09 02:15:43;;;;;;;26.55;17.63;;;15.10;99.90;;;;;;5017851;28;20040;-61
2021/09/09 02:18:10;;;;;;;26.67;18.13;;;15.10;99.90;;;;;;5027410;28;20050;-62
2021/09/09 02:20:36;;;;;;;27.20;18.30;;;15.00;99.90;;;;;;5020201;28;20115;-63
2021/09/09 02:23:02;;;;;;;29.20;18.10;;;15.00;99.90;;;;;;5016042;28;20121;-63
2021/09/09 02:25:27;;;;;;;26.90;18.65;;;15.00;99.90;;;;;;5021269;28;20120;-63
2021/09/09 02:27:53;;;;;;;26.38;18.15;;;15.00;99.90;;;;;;5023155;28;20037;-62
2021/09/09 02:30:18;;;;;;;26.30;17.73;;;15.10;99.90;;;;;;5018748;28;20036;-63
2021/09/09 02:32:44;;;;;;;24.30;16.67;;;15.10;99.90;;;;;;5019935;28;20029;-63
2021/09/09 02:35:10;;;;;;;27.92;17.88;;;15.10;99.90;;;;;;5015038;28;20033;-64
2021/09/09 02:37:36;;;;;;;32.80;18.50;;;15.10;99.90;;;;;;5022350;28;20026;-62
2021/09/09 02:40:02;;;;;;;25.77;17.98;;;15.10;99.90;;;;;;5020041;28;20038;-63
2021/09/09 02:42:28;;;;;;;26.08;17.05;;;15.10;99.90;;;;;;5018742;28;20075;-58
2021/09/09 02:44:53;;;;;;;26.77;18.20;;;15.10;99.90;;;;;;5024240;28;20037;-60
2021/09/09 02:47:19;;;;;;;27.65;18.30;;;15.00;99.90;;;;;;5018031;28;20069;-63
2021/09/09 02:49:45;;;;;;;26.40;17.95;;;15.10;99.90;;;;;;5012670;28;20049;-63
2021/09/09 02:52:10;;;;;;;30.05;18.23;;;15.00;99.90;;;;;;5022284;28;20053;-63
2021/09/09 02:54:36;;;;;;;30.67;18.48;;;15.00;99.90;;;;;;5016716;28;20017;-63
2021/09/09 02:57:02;;;;;;;26.10;17.23;;;15.10;99.90;;;;;;5027630;28;20037;-63
2021/09/09 02:59:27;;;;;;;24.92;16.05;;;15.10;99.90;;;;;;5018619;28;20034;-63
2021/09/09 03:01:53;;;;;;;28.27;18.58;;;15.00;99.90;;;;;;5019558;28;20048;-63
2021/09/09 03:04:18;;;;;;;26.95;17.55;;;15.10;99.90;;;;;;5023057;28;20064;-62
2021/09/09 03:06:44;;;;;;;27.52;19.23;;;15.10;99.90;;;;;;5008850;28;20036;-63
2021/09/09 03:09:10;;;;;;;27.48;18.60;;;15.10;99.90;;;;;;5024531;28;20038;-63
2021/09/09 03:11:35;;;;;;;27.90;17.20;;;15.00;99.90;;;;;;5024311;28;20473;-64
2021/09/09 03:14:01;;;;;;;28.42;18.17;;;15.00;99.90;;;;;;5026691;28;20421;-63
2021/09/09 03:16:26;;;;;;;28.13;17.92;;;14.90;99.90;;;;;;5020657;28;20039;-63
2021/09/09 03:18:52;;;;;;;26.00;18.45;;;15.00;99.90;;;;;;5031172;28;20419;-63
2021/09/09 03:21:18;;;;;;;28.70;18.30;;;15.00;99.90;;;;;;5024637;28;20477;-63
2021/09/09 03:23:43;;;;;;;25.63;16.65;;;15.00;99.90;;;;;;5018029;28;20497;-63
2021/09/09 03:26:09;;;;;;;28.30;17.35;;;14.90;99.90;;;;;;5021165;28;20041;-64
2021/09/09 03:28:34;;;;;;;27.35;17.15;;;14.90;99.90;;;;;;5024676;28;20025;-64
2021/09/09 03:31:00;;;;;;;25.83;17.58;;;14.80;99.90;;;;;;5027034;28;20091;-62
2021/09/09 03:33:25;;;;;;;23.70;16.83;;;14.80;99.90;;;;;;5026436;28;20087;-62
2021/09/09 03:35:51;;;;;;;28.83;18.75;;;14.80;99.90;;;;;;5026527;28;20061;-63
2021/09/09 03:38:17;;;;;;;28.83;17.58;;;14.80;99.90;;;;;;5030619;28;20030;-63
2021/09/09 03:40:42;;;;;;;24.17;16.48;;;14.70;99.90;;;;;;5028248;28;20041;-61
2021/09/09 03:43:08;;;;;;;28.10;17.60;;;14.60;99.90;;;;;;5032360;28;20025;-63
2021/09/09 03:45:33;;;;;;;31.05;18.42;;;14.60;99.90;;;;;;5035375;28;20455;-63
2021/09/09 03:47:59;;;;;;;26.55;17.73;;;14.60;99.90;;;;;;5033745;28;20026;-64
2021/09/09 03:50:24;;;;;;;31.13;18.50;;;14.60;99.90;;;;;;5029965;28;20691;-62
2021/09/09 03:52:50;;;;;;;27.45;18.13;;;14.50;99.90;;;;;;5032749;28;20030;-63
2021/09/09 03:55:15;;;;;;;34.35;20.13;;;14.50;99.90;;;;;;5035398;28;20052;-62
2021/09/09 03:57:41;;;;;;;27.70;18.17;;;14.60;99.90;;;;;;5028979;28;20029;-63
2021/09/09 04:00:07;;;;;;;28.75;18.08;;;14.60;99.90;;;;;;5035411;28;20049;-62
2021/09/09 04:02:33;;;;;;;31.42;17.80;;;14.60;99.90;;;;;;5026070;28;20036;-62
2021/09/09 04:04:58;;;;;;;28.17;18.75;;;14.60;99.90;;;;;;5028781;28;20030;-63
2021/09/09 04:07:24;;;;;;;28.38;17.50;;;14.60;99.90;;;;;;5034310;28;20075;-63
2021/09/09 04:09:50;;;;;;;34.20;18.52;;;14.60;99.90;;;;;;5030140;28;20029;-64
2021/09/09 04:12:15;;;;;;;30.55;18.02;;;14.60;99.90;;;;;;5025966;28;20108;-64
2021/09/09 04:14:41;;;;;;;30.25;18.88;;;14.60;99.90;;;;;;5029647;28;20037;-63
2021/09/09 04:17:07;;;;;;;25.58;17.42;;;14.60;99.90;;;;;;5031696;28;20473;-64
2021/09/09 04:19:33;;;;;;;26.13;17.00;;;14.60;99.90;;;;;;5025957;28;20463;-64
2021/09/09 04:22:00;;;;;;;29.95;18.08;;;14.60;99.90;;;;;;5028621;28;20025;-64
2021/09/09 04:24:26;;;;;;;28.02;17.65;;;14.60;99.90;;;;;;5029608;28;20033;-63
2021/09/09 04:26:52;;;;;;;27.25;17.73;;;14.60;99.90;;;;;;5031927;28;20477;-64
2021/09/09 04:29:18;;;;;;;26.77;17.05;;;14.60;99.90;;;;;;5028304;28;20036;-64
2021/09/09 04:31:43;;;;;;;26.88;17.92;;;14.60;99.90;;;;;;5031171;28;20100;-64
2021/09/09 04:34:09;;;;;;;24.63;16.73;;;14.60;99.90;;;;;;5024111;28;20022;-63
2021/09/09 04:36:34;;;;;;;25.95;16.80;;;14.60;99.90;;;;;;5030311;28;20112;-63
2021/09/09 04:39:00;;;;;;;28.25;17.42;;;14.60;99.90;;;;;;5023010;28;20035;-64
2021/09/09 04:41:26;;;;;;;27.58;17.02;;;14.70;99.90;;;;;;5029538;28;20060;-64
2021/09/09 04:43:51;;;;;;;32.05;17.95;;;14.70;99.90;;;;;;5024661;28;20045;-63
2021/09/09 04:46:17;;;;;;;28.67;17.50;;;14.70;99.90;;;;;;5024651;28;20057;-64
2021/09/09 04:48:42;;;;;;;32.13;17.95;;;14.70;99.90;;;;;;5023339;28;20034;-61
2021/09/09 04:51:08;;;;;;;33.05;18.15;;;14.70;99.90;;;;;;5027717;28;20033;-64
2021/09/09 04:53:34;;;;;;;27.17;16.50;;;14.70;99.90;;;;;;5023924;28;20057;-63
2021/09/09 04:55:59;;;;;;;27.83;17.38;;;14.70;99.90;;;;;;5027798;28;20029;-62
2021/09/09 04:58:27;;;;;;;27.73;17.25;;;14.70;99.90;;;;;;5028770;28;20029;-64
2021/09/09 05:00:52;;;;;;;29.20;17.15;;;14.70;99.90;;;;;;5025055;28;20116;-63
2021/09/09 05:03:18;;;;;;;25.58;16.67;;;14.80;99.90;;;;;;5021753;28;20026;-63
2021/09/09 05:05:43;;;;;;;25.88;17.27;;;14.80;99.90;;;;;;5023488;28;20029;-64
2021/09/09 05:08:09;;;;;;;30.77;17.80;;;14.80;99.90;;;;;;5029092;28;20108;-64
2021/09/09 05:10:35;;;;;;;28.55;16.52;;;14.80;99.90;;;;;;5020081;28;20034;-62
2021/09/09 05:13:00;;;;;;;26.33;17.25;;;14.80;99.90;;;;;;5023181;28;20025;-64
2021/09/09 05:15:26;;;;;;;28.33;17.75;;;14.80;99.90;;;;;;5023929;28;20033;-64
2021/09/09 05:17:52;;;;;;;32.28;17.65;;;14.80;99.90;;;;;;5020938;28;20064;-63
2021/09/09 05:20:18;;;;;;;29.90;16.67;;;14.80;99.90;;;;;;5027196;28;20480;-64
2021/09/09 05:22:43;;;;;;;30.42;17.30;;;14.80;99.90;;;;;;5022755;28;20025;-61
2021/09/09 05:25:09;;;;;;;27.08;17.38;;;14.90;99.90;;;;;;5024919;28;20552;-64
2021/09/09 05:27:35;;;;;;;26.27;17.25;;;14.90;99.90;;;;;;5024558;28;20105;-63
2021/09/09 05:30:00;;;;;;;24.67;16.73;;;14.90;99.90;;;;;;5021324;28;20108;-64
2021/09/09 05:32:26;;;;;;;28.00;17.67;;;15.00;99.90;;;;;;5017368;28;20068;-60
2021/09/09 05:34:52;;;;;;;32.80;17.67;;;15.00;99.90;;;;;;5024856;28;20040;-59
2021/09/09 05:37:18;;;;;;;28.05;16.85;;;15.10;99.90;;;;;;5028934;28;20057;-58
2021/09/09 05:39:43;;;;;;;26.38;16.63;;;15.10;99.90;;;;;;5011754;28;20026;-59
2021/09/09 05:42:09;;;;;;;33.25;16.83;;;15.10;99.90;;;;;;5028990;28;20095;-58
2021/09/09 05:44:35;;;;;;;32.13;17.98;;;15.10;99.90;;;;;;5021589;28;20609;-59
2021/09/09 05:47:01;;;;;;;23.88;15.45;;;15.20;99.90;;;;;;5029240;28;20487;-59
2021/09/09 05:49:26;;;;;;;30.70;16.50;;;15.20;99.90;;;;;;5029228;28;20029;-58
2021/09/09 05:51:52;;;;;;;29.35;16.90;;;15.30;99.90;;;;;;5028963;28;20504;-61
2021/09/09 05:54:17;;;;;;;25.80;16.17;;;15.30;99.90;;;;;;5025541;28;20453;-60
2021/09/09 05:56:43;;;;;;;30.67;16.35;;;15.30;99.90;;;;;;5028964;28;20493;-59
2021/09/09 05:59:10;;;;;;;26.20;17.08;;;15.40;99.90;;;;;;4989851;28;1040744;-56
2021/09/09 06:01:36;;;;;;;25.83;16.38;;;15.40;99.90;;;;;;5025545;28;20553;-59
2021/09/09 06:04:02;;;;;;;22.55;15.57;;;15.50;99.90;;;;;;5028102;28;20061;-60
2021/09/09 06:06:29;;;;;;;24.00;15.27;;;15.50;99.90;;;;;;5032444;28;20032;-57
2021/09/09 06:08:55;;;;;;;26.23;15.45;;;15.50;99.90;;;;;;5032191;28;20041;-59
2021/09/09 06:11:20;;;;;;;27.60;16.95;;;15.60;99.90;;;;;;5029980;28;20558;-60
2021/09/09 06:13:46;;;;;;;27.23;15.48;;;15.60;99.90;;;;;;5018645;28;20018;-61
2021/09/09 06:16:11;;;;;;;23.13;15.82;;;15.70;99.90;;;;;;5021875;28;20076;-60
2021/09/09 06:18:37;;;;;;;32.55;17.17;;;15.80;99.90;;;;;;5025766;28;20030;-59
2021/09/09 06:21:03;;;;;;;26.92;16.25;;;15.80;99.90;;;;;;5024987;28;20505;-60
2021/09/09 06:23:28;;;;;;;28.02;16.42;;;15.90;99.90;;;;;;5026219;28;20034;-58
2021/09/09 06:25:54;;;;;;;21.40;14.75;;;15.90;99.90;;;;;;5032285;28;20421;-59
2021/09/09 06:28:19;;;;;;;27.10;15.48;;;16.00;99.90;;;;;;5032393;28;20040;-58
2021/09/09 06:30:45;;;;;;;27.73;15.18;;;16.10;99.90;;;;;;5024538;28;20025;-58
2021/09/09 06:33:11;;;;;;;27.63;15.68;;;16.20;99.90;;;;;;5027599;28;20034;-55
2021/09/09 06:35:37;;;;;;;25.27;14.02;;;16.20;99.90;;;;;;5032100;28;20504;-59
2021/09/09 06:38:03;;;;;;;21.92;14.20;;;16.30;99.90;;;;;;5029806;28;20026;-59
2021/09/09 06:40:29;;;;;;;21.55;14.30;;;16.40;99.90;;;;;;5025285;28;20586;-59
2021/09/09 06:42:54;;;;;;;26.38;15.70;;;16.50;99.90;;;;;;5030541;28;20033;-59
2021/09/09 06:45:20;;;;;;;27.65;15.63;;;16.60;99.90;;;;;;5021229;28;20038;-60
2021/09/09 06:47:46;;;;;;;21.92;15.38;;;16.60;99.90;;;;;;5027241;28;20029;-60
2021/09/09 06:50:11;;;;;;;32.97;17.73;;;16.70;99.90;;;;;;5025094;28;20044;-59
2021/09/09 06:52:37;;;;;;;28.42;16.13;;;16.80;99.90;;;;;;5022167;28;20408;-58
2021/09/09 06:55:03;;;;;;;25.48;15.15;;;16.90;99.90;;;;;;5030808;28;20032;-58
2021/09/09 06:57:28;;;;;;;22.23;13.93;;;16.90;99.90;;;;;;5024169;28;20028;-58
2021/09/09 06:59:54;;;;;;;27.77;15.07;;;17.00;99.90;;;;;;5040817;23;20386;-60
2021/09/09 07:02:19;;;;;;;25.63;15.68;;;17.10;99.90;;;;;;4990578;28;20028;-60
2021/09/09 07:04:45;;;;;;;22.02;14.25;;;17.20;99.90;;;;;;4988956;28;20105;-60
2021/09/09 07:07:10;;;;;;;27.83;15.23;;;17.20;99.90;;;;;;4987221;28;20391;-60
2021/09/09 07:09:36;;;;;;;23.90;14.57;;;17.30;99.90;;;;;;4989111;28;20026;-60
2021/09/09 07:12:03;;;;;;;33.30;15.73;;;17.40;99.90;;;;;;4985769;28;20034;-60
2021/09/09 07:14:28;;;;;;;25.83;14.60;;;17.60;99.90;;;;;;4990391;28;20034;-60
2021/09/09 07:16:55;;;;;;;23.67;14.00;;;17.70;99.90;;;;;;4990967;28;20391;-59
2021/09/09 07:19:20;;;;;;;29.75;14.77;;;17.70;99.90;;;;;;4988745;28;20030;-60
2021/09/09 07:21:50;;;;;;;25.55;14.25;;;17.70;99.90;;;;;;4988046;28;20049;-60
2021/09/09 07:24:17;;;;;;;25.40;14.10;;;17.80;99.90;;;;;;4990770;28;20076;-59
2021/09/09 07:26:44;;;;;;;25.75;13.55;;;17.90;99.90;;;;;;4990704;28;20022;-60
2021/09/09 07:29:12;;;;;;;24.65;14.25;;;17.90;99.90;;;;;;4990598;28;20018;-59
2021/09/09 07:31:37;;;;;;;23.58;13.68;;;18.00;99.90;;;;;;4989859;28;20034;-59
2021/09/09 07:34:03;;;;;;;27.83;13.60;;;18.10;99.90;;;;;;4978619;28;20147;-60
2021/09/09 07:36:28;;;;;;;19.27;13.35;;;18.10;99.90;;;;;;4986818;28;20055;-60
2021/09/09 07:38:54;;;;;;;26.58;14.77;;;18.20;99.90;;;;;;4977795;28;20049;-60
2021/09/09 07:41:19;;;;;;;24.27;14.50;;;18.30;99.90;;;;;;4976941;28;20052;-57
2021/09/09 07:43:45;;;;;;;27.73;15.57;;;18.40;99.90;;;;;;4966340;28;20019;-57
2021/09/09 07:46:10;;;;;;;22.52;14.43;;;18.40;99.90;;;;;;4983455;28;20030;-59
2021/09/09 07:48:36;;;;;;;21.48;13.82;;;18.50;99.90;;;;;;4982214;28;20046;-58
2021/09/09 07:51:02;;;;;;;24.80;13.93;;;18.60;99.90;;;;;;4984668;28;20039;-57
2021/09/09 07:53:27;;;;;;;29.75;13.50;;;18.70;99.90;;;;;;4970465;28;20049;-61
2021/09/09 07:55:53;;;;;;;24.88;13.70;;;18.80;99.90;;;;;;4977381;28;20050;-60
2021/09/09 07:58:18;;;;;;;24.38;13.15;;;18.80;99.90;;;;;;4977468;28;20027;-58
2021/09/09 08:00:44;;;;;;;24.17;13.27;;;19.00;99.90;;;;;;4970749;28;20406;-57
2021/09/09 08:03:09;;;;;;;25.95;13.57;;;19.10;99.90;;;;;;4977480;28;20035;-59
2021/09/09 08:05:35;;;;;;;22.30;13.70;;;19.20;99.90;;;;;;4972584;28;20487;-60
2021/09/09 08:08:01;;;;;;;23.85;14.20;;;19.30;99.90;;;;;;4982379;28;20042;-58
2021/09/09 08:10:26;;;;;;;22.63;12.60;;;19.30;99.90;;;;;;4971500;28;20113;-59
2021/09/09 08:12:52;;;;;;;21.63;12.70;;;19.40;99.90;;;;;;4983135;28;20142;-59
2021/09/09 08:15:17;;;;;;;23.52;13.40;;;19.50;99.90;;;;;;4977923;28;20081;-60
2021/09/09 08:17:43;;;;;;;20.35;12.52;;;19.60;99.90;;;;;;4983702;28;20147;-58
2021/09/09 08:20:11;;;;;;;21.63;13.85;;;19.60;99.90;;;;;;4983722;28;20026;-58
2021/09/09 08:22:37;;;;;;;23.55;12.65;;;19.80;99.90;;;;;;4978192;28;20061;-61
2021/09/09 08:25:03;;;;;;;21.40;12.63;;;19.80;99.90;;;;;;4993010;28;20022;-59
2021/09/09 08:27:31;;;;;;;22.48;13.32;;;20.00;99.90;;;;;;4986381;28;20105;-58
2021/09/09 08:29:57;;;;;;;33.67;13.45;;;20.10;99.90;;;;;;4973628;28;20098;-59
2021/09/09 08:32:24;;;;;;;23.02;12.68;;;20.20;99.90;;;;;;4986182;28;20026;-58
2021/09/09 08:34:54;;;;;;;18.75;11.63;;;20.20;99.90;;;;;;4977201;28;20037;-57
2021/09/09 08:37:20;;;;;;;25.55;13.52;;;20.30;99.90;;;;;;4984986;28;20034;-59
2021/09/09 08:39:46;;;;;;;22.05;12.82;;;20.50;99.90;;;;;;4986479;28;20055;-59
2021/09/09 08:42:12;;;;;;;20.35;12.43;;;20.50;99.90;;;;;;4992052;28;20030;-60
2021/09/09 08:44:38;;;;;;;21.52;13.43;;;20.70;99.90;;;;;;4958594;28;20031;-59
2021/09/09 08:47:06;;;;;;;28.15;13.95;;;20.90;99.90;;;;;;4974698;28;20553;-58
2021/09/09 08:49:31;;;;;;;22.10;12.45;;;20.90;99.90;;;;;;4980289;28;20035;-59
2021/09/09 08:51:58;;;;;;;29.25;12.00;;;21.00;99.90;;;;;;4980895;28;20120;-57
2021/09/09 08:54:25;;;;;;;21.73;12.25;;;21.10;99.90;;;;;;4975244;28;20019;-60
2021/09/09 08:56:50;;;;;;;20.58;12.63;;;21.20;99.90;;;;;;4980657;28;20390;-58
2021/09/09 08:59:16;;;;;;;23.30;11.80;;;21.30;99.90;;;;;;4984051;28;20041;-59
2021/09/09 09:02:05;;;;;;;18.15;11.77;;;21.40;99.90;;;;;;4981465;28;20046;-58
2021/09/09 09:04:32;;;;;;;23.95;12.68;;;21.50;99.90;;;;;;4988177;28;20081;-59
2021/09/09 09:06:58;;;;;;;23.38;11.90;;;21.60;99.90;;;;;;4989305;28;20029;-58
2021/09/09 09:09:24;;;;;;;20.52;11.52;;;21.80;99.90;;;;;;4976506;28;20027;-58
2021/09/09 09:11:52;;;;;;;23.80;11.95;;;21.90;99.90;;;;;;4986084;28;20038;-57
2021/09/09 09:14:21;;;;;;;19.38;11.95;;;22.00;99.90;;;;;;4991770;28;20037;-57
2021/09/09 09:16:53;;;;;;;25.60;11.60;;;22.20;99.90;;;;;;4983262;28;20089;-58
2021/09/09 09:19:30;;;;;;;25.08;11.45;;;22.30;99.90;;;;;;4976591;28;20027;-58
2021/09/09 09:22:03;;;;;;;16.13;10.50;;;22.40;99.90;;;;;;4977465;28;20051;-56
2021/09/09 09:24:34;;;;;;;23.55;11.13;;;22.50;99.90;;;;;;4979083;28;20030;-57
2021/09/09 09:27:12;;;;;;;27.45;12.50;;;22.70;99.90;;;;;;4974389;28;20027;-56
2021/09/09 09:29:40;;;;;;;19.23;11.55;;;22.80;99.90;;;;;;4979954;28;20106;-57
2021/09/09 09:32:12;;;;;;;18.00;10.63;;;22.90;99.90;;;;;;4989046;28;20447;-59
2021/09/09 09:34:39;;;;;;;15.88;10.30;;;23.00;99.90;;;;;;4984535;28;20027;-58
2021/09/09 09:37:04;;;;;;;19.90;12.15;;;23.10;99.90;;;;;;4979688;28;20050;-60
2021/09/09 09:39:31;;;;;;;22.48;11.90;;;23.30;99.90;;;;;;4985197;28;20014;-60
2021/09/09 09:42:00;;;;;;;23.90;11.55;;;23.40;99.90;;;;;;4991539;28;20038;-60
2021/09/09 09:44:40;;;;;;;15.90;10.57;;;23.50;99.90;;;;;;4979976;28;20026;-59
2021/09/09 09:47:11;;;;;;;17.13;10.95;;;23.60;99.90;;;;;;4980221;28;20732;-60
2021/09/09 09:49:39;;;;;;;17.05;10.55;;;23.80;99.90;;;;;;4989918;28;20086;-60
2021/09/09 09:52:07;;;;;;;19.23;10.43;;;24.00;99.90;;;;;;4984531;28;20092;-60
2021/09/09 09:54:34;;;;;;;18.17;10.40;;;24.00;99.90;;;;;;4977233;28;20035;-59
2021/09/09 09:57:00;;;;;;;17.13;9.63;;;24.20;99.90;;;;;;4984870;28;20062;-58
2021/09/09 09:59:25;;;;;;;15.23;9.30;;;24.30;99.90;;;;;;4980088;28;20109;-56
2021/09/09 10:01:51;;;;;;;19.65;10.90;;;24.40;99.90;;;;;;4985376;28;20146;-57
2021/09/09 10:04:21;;;;;;;14.98;10.38;;;24.60;99.90;;;;;;4982832;28;20038;-57
2021/09/09 10:06:50;;;;;;;18.30;11.05;;;24.70;99.90;;;;;;4985710;28;20088;-58
2021/09/09 10:09:16;;;;;;;16.27;11.07;;;24.80;99.90;;;;;;4979762;28;20034;-61
2021/09/09 10:11:43;;;;;;;18.50;10.75;;;24.70;99.90;;;;;;4982886;28;20393;-60
2021/09/09 10:14:18;;;;;;;22.30;10.75;;;24.90;99.90;;;;;;4969255;28;20367;-58
2021/09/09 10:16:45;;;;;;;27.67;11.15;;;25.10;99.90;;;;;;4979473;28;20023;-61
2021/09/09 10:19:12;;;;;;;25.52;11.52;;;25.30;99.90;;;;;;4978913;28;20023;-55
2021/09/09 10:21:43;;;;;;;19.77;11.20;;;25.40;99.90;;;;;;4985220;28;20023;-59
2021/09/09 10:24:13;;;;;;;20.25;11.98;;;25.50;99.90;;;;;;4984830;28;20030;-59
2021/09/09 10:26:40;;;;;;;25.05;11.15;;;25.70;99.90;;;;;;4984530;28;20101;-57
2021/09/09 10:29:09;;;;;;;18.80;11.70;;;26.00;99.90;;;;;;4972885;28;20023;-59
2021/09/09 10:31:42;;;;;;;23.98;11.02;;;26.00;99.90;;;;;;4972096;28;20443;-58
2021/09/09 10:34:20;;;;;;;23.90;13.10;;;26.10;99.90;;;;;;4984335;28;20065;-59
2021/09/09 10:36:46;;;;;;;24.42;13.40;;;26.00;99.90;;;;;;4984427;28;20031;-56
2021/09/09 10:39:17;;;;;;;26.58;14.13;;;26.00;99.90;;;;;;4988866;28;20033;-58
2021/09/09 10:41:43;;;;;;;24.05;13.23;;;26.10;99.90;;;;;;4976636;28;20030;-58
2021/09/09 10:44:10;;;;;;;27.77;14.00;;;26.30;99.90;;;;;;4987063;28;20502;-58
2021/09/09 10:46:41;;;;;;;26.15;13.18;;;26.50;99.90;;;;;;4977458;28;20113;-60
2021/09/09 10:49:10;;;;;;;24.63;13.10;;;26.60;99.90;;;;;;4986772;28;20093;-57
2021/09/09 10:51:36;;;;;;;25.70;13.70;;;26.70;99.90;;;;;;4987430;28;20031;-60
2021/09/09 10:54:03;;;;;;;27.20;13.20;;;26.80;99.90;;;;;;4981208;28;20406;-56
2021/09/09 10:56:37;;;;;;;24.20;12.68;;;26.90;99.90;;;;;;4983559;28;20367;-59
2021/09/09 10:59:44;;;;;;;24.23;13.50;;;26.90;99.90;;;;;;4983948;28;20019;-59
2021/09/09 11:02:12;;;;;;;29.27;14.00;;;26.80;99.90;;;;;;4982387;28;20515;-58
2021/09/09 11:04:37;;;;;;;27.05;13.32;;;26.90;99.90;;;;;;4989339;28;20038;-57
2021/09/09 11:07:22;;;;;;;23.80;12.95;;;27.10;99.90;;;;;;4978000;28;20030;-55
2021/09/09 11:09:57;;;;;;;25.48;12.15;;;27.10;99.90;;;;;;4983892;28;20109;-59
2021/09/09 11:12:23;;;;;;;20.02;10.73;;;27.20;99.90;;;;;;4985710;28;20051;-57
2021/09/09 11:14:48;;;;;;;22.70;11.55;;;27.30;99.90;;;;;;4988918;28;20468;-57
2021/09/09 11:17:18;;;;;;;21.45;10.35;;;27.30;99.90;;;;;;4979341;28;20142;-60
2021/09/09 11:19:43;;;;;;;18.48;10.50;;;27.50;99.90;;;;;;4975292;28;20030;-55
2021/09/09 11:22:09;;;;;;;23.55;10.57;;;27.50;99.90;;;;;;4978599;28;20027;-57
2021/09/09 11:24:35;;;;;;;22.67;9.77;;;27.60;99.90;;;;;;4986918;28;20034;-59
2021/09/09 11:27:02;;;;;;;12.63;9.63;;;27.70;99.90;;;;;;4983443;28;20031;-58
2021/09/09 11:29:27;;;;;;;16.58;10.80;;;27.80;99.90;;;;;;4980183;28;20030;-55
2021/09/09 11:31:55;;;;;;;16.45;9.98;;;27.90;99.90;;;;;;4986541;28;20136;-57
2021/09/09 11:34:26;;;;;;;18.20;10.35;;;27.90;99.90;;;;;;4984598;28;20469;-58
2021/09/09 11:36:52;;;;;;;17.05;11.15;;;28.00;99.90;;;;;;4987410;28;20080;-57
2021/09/09 11:39:23;;;;;;;17.60;10.00;;;28.10;99.90;;;;;;4989814;28;20137;-58
2021/09/09 11:41:54;;;;;;;15.30;10.60;;;28.20;99.90;;;;;;4986973;28;20034;-56
2021/09/09 11:44:23;;;;;;;15.02;9.35;;;28.30;99.90;;;;;;4983003;28;20037;-59
2021/09/09 11:46:51;;;;;;;18.50;9.23;;;28.30;99.90;;;;;;4987884;28;20109;-57
2021/09/09 11:49:19;;;;;;;18.50;10.18;;;28.10;99.90;;;;;;4992420;28;20038;-58
2021/09/09 11:51:56;;;;;;;13.25;9.60;;;28.00;99.90;;;;;;4989378;28;20109;-59
2021/09/09 11:54:30;;;;;;;13.75;10.45;;;27.80;99.90;;;;;;4971692;28;20027;-58
2021/09/09 11:57:04;;;;;;;17.95;9.95;;;27.50;99.90;;;;;;4983952;28;20015;-54
2021/09/09 11:59:31;;;;;;;17.42;10.07;;;27.50;99.90;;;;;;4982162;28;20034;-60
2021/09/09 12:02:05;;;;;;;18.75;9.65;;;27.40;99.90;;;;;;4987570;28;20109;-58
2021/09/09 12:04:31;;;;;;;;;;;27.50;99.90;;;;;;4984222;28;20081;-59
2021/09/09 12:06:57;;;;;;;18.67;8.90;;;27.60;99.90;;;;;;4982439;28;19913;-59
2021/09/09 12:09:26;;;;;;;17.67;9.50;;;27.80;99.90;;;;;;4988558;28;20033;-57
2021/09/09 12:12:05;;;;;;;25.83;11.55;;;28.10;99.90;;;;;;4985948;28;20044;-59
2021/09/09 12:14:31;;;;;;;12.38;8.75;;;28.20;99.90;;;;;;4984762;28;20526;-57
2021/09/09 12:17:10;;;;;;;15.73;9.10;;;28.40;99.90;;;;;;4990406;28;20045;-59
2021/09/09 12:19:57;;;;;;;18.40;9.70;;;28.50;99.90;;;;;;4983845;28;20047;-59
2021/09/09 12:22:46;;;;;;;17.52;9.50;;;28.50;99.90;;;;;;4973937;28;20031;-59
2021/09/09 12:25:13;;;;;;;14.38;9.13;;;28.60;99.90;;;;;;4980540;28;20042;-59
2021/09/09 12:27:53;;;;;;;13.60;8.23;;;28.70;99.90;;;;;;4980344;28;20542;-59